Terminal Aerodrome Forecast
Issued by NWS

Home | Current Version | Previous Version | Text Only | Print | Product List | Glossary On
Versions: 1 2 3 4 5 6 7 8 9 10 11 12 13 14 15 16 17 18
988
FTUS42 KTBW 242320
TAFLAL
TAF
KLAL 242320Z 2500/2524 07006KT P6SM SCT030 SCT150 BKN250
     FM250900 04005KT P6SM SCT010 BKN025
     FM251500 06009KT P6SM VCTS SCT025CB BKN050
     FM251800 06011KT P6SM VCTS SCT035CB BKN050 OVC120
      AMD NOT SKED 2502/2511=

USA.gov is the U.S. government's official web portal to all federal, state and local government web resources and services.